Time;durP1;ratioP1;P1;durP2;ratioP2;P2;SDS_P1;SDS_P2;PMS_P1;PMS_P2;Temp;Humidity;BMP_temperature;BMP_pressure;BME280_temperature;BME280_humidity;BME280_pressure;Samples;Min_cycle;Max_cycle;Signal;HPM_P1;HPM_P2
2022/04/15 00:02:01;;;;;;;35.50;29.65;;;26.70;99.90;;;;;;5052237;28;20029;-61
2022/04/15 00:04:29;;;;;;;28.70;25.63;;;26.80;99.90;;;;;;5051435;28;20049;-60
2022/04/15 00:06:55;;;;;;;32.15;27.48;;;26.90;99.90;;;;;;5052515;28;20025;-60
2022/04/15 00:09:22;;;;;;;30.70;25.17;;;26.90;99.90;;;;;;5052516;28;20537;-61
2022/04/15 00:11:49;;;;;;;27.67;24.73;;;26.90;99.90;;;;;;5052798;28;20025;-63
2022/04/15 00:14:15;;;;;;;33.65;22.63;;;27.00;99.90;;;;;;5052476;28;20025;-61
2022/04/15 00:16:43;;;;;;;24.48;21.10;;;27.00;99.90;;;;;;5052819;28;20035;-62
2022/04/15 00:19:13;;;;;;;25.48;22.30;;;26.90;99.90;;;;;;5052334;28;20119;-63
2022/04/15 00:21:40;;;;;;;29.63;25.42;;;26.80;99.90;;;;;;5051528;28;20055;-62
2022/04/15 00:24:07;;;;;;;38.28;29.88;;;26.80;99.90;;;;;;5052139;28;20025;-62
2022/04/15 00:26:34;;;;;;;39.78;31.30;;;26.70;99.90;;;;;;5051662;28;20025;-61
2022/04/15 00:29:03;;;;;;;40.50;31.38;;;26.60;99.90;;;;;;5051702;28;20029;-62
2022/04/15 00:31:29;;;;;;;37.35;29.67;;;26.50;99.90;;;;;;5053171;28;20025;-62
2022/04/15 00:33:56;;;;;;;34.42;26.60;;;26.50;99.90;;;;;;5053717;28;20068;-61
2022/04/15 00:36:23;;;;;;;30.23;24.95;;;26.40;99.90;;;;;;5038575;28;20041;-62
2022/04/15 00:38:49;;;;;;;33.42;27.10;;;26.30;99.90;;;;;;5050547;28;20017;-62
2022/04/15 00:41:16;;;;;;;27.75;24.60;;;26.30;99.90;;;;;;5044303;28;20044;-65
2022/04/15 00:43:43;;;;;;;28.88;24.13;;;26.20;99.90;;;;;;5052979;28;20037;-63
2022/04/15 00:46:11;;;;;;;27.38;23.80;;;26.10;99.90;;;;;;5053365;28;20021;-62
2022/04/15 00:48:38;;;;;;;27.95;24.77;;;26.10;99.90;;;;;;5053564;28;20040;-62
2022/04/15 00:51:05;;;;;;;26.48;23.67;;;26.10;99.90;;;;;;5051247;28;20029;-62
2022/04/15 00:53:34;;;;;;;26.85;23.80;;;26.30;99.90;;;;;;5045066;28;20470;-66
2022/04/15 00:56:03;;;;;;;25.58;22.98;;;26.40;99.90;;;;;;5046508;28;20216;-63
2022/04/15 00:58:33;;;;;;;25.48;22.77;;;26.50;99.90;;;;;;5052932;28;20061;-62
2022/04/15 01:01:01;;;;;;;25.88;23.13;;;26.50;99.90;;;;;;5043403;28;20052;-61
2022/04/15 01:03:29;;;;;;;25.92;23.13;;;26.50;99.90;;;;;;5040484;28;20103;-65
2022/04/15 01:05:59;;;;;;;24.83;21.90;;;26.60;99.90;;;;;;5047019;28;20030;-63
2022/04/15 01:08:29;;;;;;;27.05;23.02;;;26.60;99.90;;;;;;5043852;28;20026;-63
2022/04/15 01:10:58;;;;;;;28.25;25.20;;;26.60;99.90;;;;;;5046691;28;20079;-63
2022/04/15 01:13:26;;;;;;;29.38;25.25;;;26.70;99.90;;;;;;5052687;28;20048;-63
2022/04/15 01:15:55;;;;;;;28.63;23.90;;;26.70;99.90;;;;;;5053302;28;20060;-65
2022/04/15 01:18:23;;;;;;;26.45;23.25;;;26.60;99.90;;;;;;5055044;28;20021;-65
2022/04/15 01:20:52;;;;;;;25.13;22.30;;;26.60;99.90;;;;;;5052813;28;20025;-63
2022/04/15 01:23:19;;;;;;;25.60;22.85;;;26.60;99.90;;;;;;5062538;28;20068;-63
2022/04/15 01:25:46;;;;;;;28.55;24.13;;;26.70;99.90;;;;;;5052869;28;20117;-64
2022/04/15 01:30:44;;;;;;;26.98;23.45;;;26.90;99.90;;;;;;5060631;28;20079;-63
2022/04/15 01:33:10;;;;;;;25.77;22.73;;;26.80;99.90;;;;;;5059153;28;20033;-63
2022/04/15 01:35:37;;;;;;;25.88;23.13;;;26.90;99.90;;;;;;5059565;28;20025;-64
2022/04/15 01:38:07;;;;;;;26.35;21.23;;;26.90;99.90;;;;;;5051969;28;20029;-64
2022/04/15 01:40:34;;;;;;;25.80;22.63;;;26.90;99.90;;;;;;5049731;28;20032;-66
2022/04/15 01:43:00;;;;;;;24.67;22.10;;;26.90;99.90;;;;;;5052579;28;20068;-66
2022/04/15 01:45:27;;;;;;;26.60;22.30;;;26.90;99.90;;;;;;5052973;28;20025;-62
2022/04/15 01:47:54;;;;;;;28.10;23.70;;;26.90;99.90;;;;;;5050771;28;20021;-63
2022/04/15 01:50:21;;;;;;;31.58;26.88;;;26.90;99.90;;;;;;5054313;28;20021;-64
2022/04/15 01:52:47;;;;;;;33.42;29.90;;;27.00;99.90;;;;;;5056712;28;20044;-63
2022/04/15 01:55:14;;;;;;;35.10;30.15;;;27.10;99.90;;;;;;5053754;28;20020;-65
2022/04/15 01:57:41;;;;;;;34.35;30.65;;;27.10;99.90;;;;;;5056368;28;20021;-63
2022/04/15 02:00:08;;;;;;;38.50;33.72;;;27.20;99.90;;;;;;5055926;28;20362;-63
2022/04/15 02:02:34;;;;;;;41.72;35.70;;;27.30;99.90;;;;;;5053386;28;20052;-62
2022/04/15 02:05:01;;;;;;;44.30;36.05;;;27.30;99.90;;;;;;5055607;28;20485;-63
2022/04/15 02:07:28;;;;;;;42.03;34.83;;;27.30;99.90;;;;;;5053917;28;20032;-62
2022/04/15 02:09:55;;;;;;;40.33;33.63;;;27.30;99.90;;;;;;5055848;28;20031;-61
2022/04/15 02:12:21;;;;;;;40.58;35.85;;;27.40;99.90;;;;;;5055431;28;20389;-64
2022/04/15 02:14:48;;;;;;;40.72;35.05;;;27.40;99.90;;;;;;5055658;28;20025;-64
2022/04/15 02:17:14;;;;;;;47.97;38.13;;;27.50;99.90;;;;;;5055223;28;20027;-61
2022/04/15 02:19:41;;;;;;;44.72;39.20;;;27.60;99.90;;;;;;5055142;28;20090;-66
2022/04/15 02:22:08;;;;;;;47.35;37.30;;;27.70;99.90;;;;;;5056346;28;20477;-63
2022/04/15 02:24:35;;;;;;;44.63;37.17;;;27.60;99.90;;;;;;5050677;28;20029;-63
2022/04/15 02:27:01;;;;;;;41.67;34.45;;;27.70;99.90;;;;;;5054410;28;20024;-64
2022/04/15 02:29:28;;;;;;;44.30;36.40;;;27.80;99.90;;;;;;5056640;28;20021;-65
2022/04/15 02:31:54;;;;;;;41.15;35.05;;;27.90;99.90;;;;;;5054987;28;20075;-67
2022/04/15 02:34:21;;;;;;;34.92;31.23;;;28.10;99.90;;;;;;5055401;28;20037;-64
2022/04/15 02:36:48;;;;;;;37.40;33.33;;;28.20;99.90;;;;;;5055653;28;20036;-64
2022/04/15 02:39:14;;;;;;;38.03;32.53;;;28.30;99.90;;;;;;5054188;28;20094;-63
2022/04/15 02:41:43;;;;;;;35.13;31.45;;;28.40;99.90;;;;;;5055680;28;20209;-63
2022/04/15 02:44:11;;;;;;;37.83;32.85;;;28.40;99.90;;;;;;5057496;28;20032;-64
2022/04/15 02:46:37;;;;;;;38.53;33.78;;;28.40;99.90;;;;;;5056100;28;20032;-63
2022/04/15 02:49:04;;;;;;;37.83;32.75;;;28.40;99.90;;;;;;5056068;28;20070;-63
2022/04/15 02:51:31;;;;;;;39.25;33.17;;;28.50;99.90;;;;;;5056011;28;20013;-63
2022/04/15 02:53:58;;;;;;;36.53;32.17;;;28.50;99.90;;;;;;5039807;28;20363;-62
2022/04/15 02:56:25;;;;;;;31.45;28.10;;;28.70;99.90;;;;;;5055698;28;20075;-65
2022/04/15 02:58:51;;;;;;;32.85;27.48;;;28.70;99.90;;;;;;5054657;28;20036;-61
2022/04/15 03:01:18;;;;;;;48.97;28.27;;;28.70;99.90;;;;;;5055454;28;20029;-65
2022/04/15 03:03:45;;;;;;;36.90;31.25;;;28.70;99.90;;;;;;5055493;28;20110;-63
2022/04/15 03:06:11;;;;;;;29.75;26.55;;;28.80;99.90;;;;;;5056259;28;21910;-64
2022/04/15 03:08:38;;;;;;;28.52;25.60;;;29.00;99.90;;;;;;5055461;28;20108;-62
2022/04/15 03:11:06;;;;;;;33.63;25.25;;;29.00;99.90;;;;;;5055513;28;20060;-62
2022/04/15 03:13:33;;;;;;;35.13;27.08;;;28.90;99.90;;;;;;5055324;28;20037;-62
2022/04/15 03:16:00;;;;;;;38.38;25.50;;;29.00;99.90;;;;;;5057200;28;20052;-62
2022/04/15 03:18:26;;;;;;;55.17;26.02;;;29.00;99.90;;;;;;5055551;28;20021;-63
2022/04/15 03:20:53;;;;;;;34.92;22.67;;;29.00;99.90;;;;;;5055201;28;20033;-62
2022/04/15 03:23:20;;;;;;;27.42;23.55;;;29.00;99.90;;;;;;5055357;28;20029;-62
2022/04/15 03:25:47;;;;;;;23.95;21.50;;;29.10;99.90;;;;;;5055143;28;20023;-63
2022/04/15 03:28:15;;;;;;;25.63;21.23;;;29.20;99.90;;;;;;5055098;28;20183;-63
2022/04/15 03:30:41;;;;;;;31.92;23.45;;;29.20;99.90;;;;;;5052795;28;20437;-70
2022/04/15 03:33:09;;;;;;;30.70;25.92;;;29.20;99.90;;;;;;5055321;28;20025;-71
2022/04/15 03:35:36;;;;;;;31.00;24.80;;;29.20;99.90;;;;;;5052520;28;20039;-71
2022/04/15 03:38:03;;;;;;;33.88;27.08;;;29.10;99.90;;;;;;5054223;28;20074;-62
2022/04/15 03:40:29;;;;;;;33.05;23.00;;;29.10;99.90;;;;;;5051093;28;20059;-63
2022/04/15 03:42:56;;;;;;;26.48;23.10;;;29.10;99.90;;;;;;5053866;28;20539;-62
2022/04/15 03:45:24;;;;;;;29.30;24.95;;;29.10;99.90;;;;;;5052513;28;20017;-63
2022/04/15 03:47:54;;;;;;;27.83;23.15;;;29.10;99.90;;;;;;5051590;28;20597;-65
2022/04/15 03:50:21;;;;;;;27.42;23.73;;;29.10;99.90;;;;;;5053939;28;20025;-64
2022/04/15 03:52:50;;;;;;;39.45;26.08;;;29.20;99.90;;;;;;5053896;28;20084;-62
2022/04/15 03:55:20;;;;;;;30.48;24.70;;;29.20;99.90;;;;;;5053835;28;20573;-63
2022/04/15 03:57:48;;;;;;;28.75;25.05;;;29.30;99.90;;;;;;5053666;28;20036;-63
2022/04/15 04:00:23;;;;;;;31.88;26.63;;;29.20;99.90;;;;;;5053379;28;20099;-61
2022/04/15 04:02:53;;;;;;;31.55;25.83;;;29.30;99.90;;;;;;5051446;28;20440;-61
2022/04/15 04:05:21;;;;;;;29.70;26.17;;;29.20;99.90;;;;;;5050601;28;20029;-64
2022/04/15 04:07:48;;;;;;;26.45;23.75;;;29.20;99.90;;;;;;5053492;28;20032;-62
2022/04/15 04:10:15;;;;;;;36.90;25.40;;;29.30;99.90;;;;;;5054147;28;20495;-63
2022/04/15 04:12:43;;;;;;;53.97;24.98;;;29.30;99.90;;;;;;5052857;28;20033;-62
2022/04/15 04:15:12;;;;;;;30.27;25.20;;;29.20;99.90;;;;;;5053260;28;20523;-62
2022/04/15 04:17:39;;;;;;;25.67;22.98;;;29.30;99.90;;;;;;5053084;28;20025;-62
2022/04/15 04:20:07;;;;;;;29.40;22.38;;;29.40;99.90;;;;;;5052649;28;20229;-62
2022/04/15 04:22:36;;;;;;;28.67;22.98;;;29.30;99.90;;;;;;5053059;28;20492;-64
2022/04/15 04:25:04;;;;;;;29.42;23.73;;;29.40;99.90;;;;;;5052131;28;20512;-63
2022/04/15 04:27:30;;;;;;;41.70;29.35;;;29.40;99.90;;;;;;5051480;28;20021;-64
2022/04/15 04:29:57;;;;;;;42.67;27.92;;;29.40;99.90;;;;;;5054420;28;20358;-63
2022/04/15 04:32:24;;;;;;;28.98;23.17;;;29.50;99.90;;;;;;5052522;28;20013;-62
2022/04/15 04:34:51;;;;;;;25.45;22.05;;;29.60;99.90;;;;;;5053362;28;20016;-63
2022/04/15 04:37:17;;;;;;;25.10;21.88;;;29.70;99.90;;;;;;5052876;28;20021;-68
2022/04/15 04:39:44;;;;;;;25.38;22.48;;;29.90;99.90;;;;;;5051300;28;20501;-63
2022/04/15 04:42:11;;;;;;;28.60;20.88;;;30.00;99.90;;;;;;5053170;28;20031;-63
2022/04/15 04:44:40;;;;;;;24.05;21.42;;;30.20;99.90;;;;;;5054012;28;20423;-63
2022/04/15 04:47:09;;;;;;;25.30;20.98;;;30.30;99.90;;;;;;5054592;28;20029;-62
2022/04/15 04:52:06;;;;;;;22.48;19.85;;;30.40;99.90;;;;;;5013167;28;20568;-66
2022/04/15 04:54:34;;;;;;;25.33;21.23;;;30.40;99.90;;;;;;5011350;28;20038;-62
2022/04/15 04:57:01;;;;;;;27.80;19.55;;;30.50;99.90;;;;;;5013277;28;20088;-63
2022/04/15 04:59:31;;;;;;;38.97;21.67;;;30.50;99.90;;;;;;5013588;28;20032;-63
2022/04/15 05:01:58;;;;;;;49.38;23.00;;;30.60;99.90;;;;;;5013547;28;20214;-66
2022/04/15 05:04:25;;;;;;;26.25;21.15;;;30.60;99.90;;;;;;5023049;28;20116;-62
2022/04/15 05:06:52;;;;;;;28.85;19.70;;;30.50;99.90;;;;;;4993940;28;20026;-63
2022/04/15 05:09:19;;;;;;;23.67;20.50;;;30.60;99.90;;;;;;5010477;28;20403;-64
2022/04/15 05:11:46;;;;;;;24.17;20.42;;;30.60;99.90;;;;;;5012372;28;20034;-63
2022/04/15 05:14:12;;;;;;;21.38;19.17;;;30.60;99.90;;;;;;5013603;28;20487;-65
2022/04/15 05:16:39;;;;;;;22.23;19.55;;;30.50;99.90;;;;;;5013368;28;20402;-63
2022/04/15 05:19:06;;;;;;;23.98;20.17;;;30.50;99.90;;;;;;5015446;28;20026;-65
2022/04/15 05:21:32;;;;;;;22.73;19.63;;;30.60;99.90;;;;;;5020643;28;20026;-65
2022/04/15 05:23:59;;;;;;;26.83;20.48;;;30.60;99.90;;;;;;5013648;28;20037;-65
2022/04/15 05:26:26;;;;;;;24.27;20.15;;;30.60;99.90;;;;;;5035832;28;20040;-65
2022/04/15 05:28:52;;;;;;;26.27;20.00;;;30.60;99.90;;;;;;5037355;28;20033;-62
2022/04/15 05:31:19;;;;;;;23.10;20.70;;;30.60;99.90;;;;;;5026393;28;20452;-62
2022/04/15 05:33:46;;;;;;;22.27;19.88;;;30.50;99.90;;;;;;5028189;28;20076;-62
2022/04/15 05:36:12;;;;;;;24.05;20.80;;;30.50;99.90;;;;;;5035337;28;20041;-66
2022/04/15 05:38:39;;;;;;;24.70;21.13;;;30.50;99.90;;;;;;4999824;28;20399;-66
2022/04/15 05:41:07;;;;;;;21.42;19.13;;;30.50;99.90;;;;;;5016883;28;20028;-63
2022/04/15 05:43:33;;;;;;;24.52;21.23;;;30.50;99.90;;;;;;5017133;28;20033;-67
2022/04/15 05:46:00;;;;;;;29.75;22.02;;;30.40;99.90;;;;;;5005699;28;20030;-64
2022/04/15 05:48:27;;;;;;;26.17;23.55;;;30.40;99.90;;;;;;5017414;28;20026;-63
2022/04/15 05:50:54;;;;;;;31.17;25.83;;;30.40;99.90;;;;;;5012728;28;20052;-64
2022/04/15 05:53:20;;;;;;;37.58;30.30;;;30.40;99.90;;;;;;5016905;28;20026;-62
2022/04/15 05:55:47;;;;;;;39.80;31.58;;;30.30;99.90;;;;;;5005808;28;20030;-66
2022/04/15 05:58:14;;;;;;;40.13;32.15;;;30.10;99.90;;;;;;5014274;28;20112;-66
2022/04/15 06:00:40;;;;;;;37.88;33.60;;;29.90;99.90;;;;;;5012568;28;20536;-68
2022/04/15 06:03:07;;;;;;;37.40;33.10;;;29.80;99.90;;;;;;5017863;28;20395;-67
2022/04/15 06:05:34;;;;;;;37.92;31.88;;;29.70;99.90;;;;;;5006797;28;20028;-67
2022/04/15 06:08:00;;;;;;;38.88;31.45;;;29.50;99.90;;;;;;5006660;28;20018;-64
2022/04/15 06:10:27;;;;;;;38.47;32.67;;;29.30;99.90;;;;;;5004343;28;20037;-64
2022/04/15 06:12:57;;;;;;;34.97;30.17;;;29.30;99.90;;;;;;5009983;28;20021;-62
2022/04/15 06:15:30;;;;;;;34.00;30.30;;;29.20;99.90;;;;;;5008414;28;20041;-62
2022/04/15 06:17:58;;;;;;;36.50;30.08;;;29.20;99.90;;;;;;5008449;28;20027;-64
2022/04/15 06:20:25;;;;;;;36.92;29.65;;;29.10;99.90;;;;;;5007086;28;20022;-65
2022/04/15 06:22:51;;;;;;;37.63;29.02;;;29.00;99.90;;;;;;5005372;28;20416;-63
2022/04/15 06:25:18;;;;;;;30.45;27.23;;;29.00;99.90;;;;;;5009381;28;20072;-67
2022/04/15 06:27:45;;;;;;;39.65;30.52;;;29.10;99.90;;;;;;5009769;28;20022;-64
2022/04/15 06:30:12;;;;;;;38.63;29.73;;;29.00;99.90;;;;;;5007927;28;20530;-65
2022/04/15 06:32:39;;;;;;;34.92;29.15;;;29.00;99.90;;;;;;5003792;28;20022;-64
2022/04/15 06:35:07;;;;;;;36.00;26.17;;;29.00;99.90;;;;;;5006516;28;20102;-63
2022/04/15 06:37:34;;;;;;;29.13;24.85;;;29.00;99.90;;;;;;5011412;28;20447;-63
2022/04/15 06:40:01;;;;;;;26.35;23.15;;;28.80;99.90;;;;;;5009235;28;20422;-64
2022/04/15 06:42:30;;;;;;;24.88;20.55;;;28.70;99.90;;;;;;5003909;28;20629;-64
2022/04/15 06:44:58;;;;;;;25.45;21.80;;;28.60;99.90;;;;;;5006571;28;20034;-66
2022/04/15 06:47:25;;;;;;;30.83;24.13;;;28.60;99.90;;;;;;5011086;28;20057;-64
2022/04/15 06:49:52;;;;;;;28.40;23.55;;;28.60;99.90;;;;;;4998529;28;20076;-64
2022/04/15 06:52:18;;;;;;;27.77;23.17;;;28.40;99.90;;;;;;5007256;28;20058;-63
2022/04/15 06:54:45;;;;;;;30.88;22.98;;;28.50;99.90;;;;;;5008073;28;20028;-64
2022/04/15 06:57:12;;;;;;;26.02;21.55;;;28.50;99.90;;;;;;5010106;28;20034;-63
2022/04/15 06:59:39;;;;;;;24.48;21.05;;;28.30;99.90;;;;;;5006570;28;20387;-65
2022/04/15 07:02:09;;;;;;;33.13;27.42;;;28.30;99.90;;;;;;4999940;28;20116;-67
2022/04/15 07:04:36;;;;;;;28.63;22.92;;;28.20;99.90;;;;;;5006789;28;20801;-65
2022/04/15 07:07:03;;;;;;;24.05;20.20;;;28.10;99.90;;;;;;5007444;28;20037;-64
2022/04/15 07:09:29;;;;;;;30.80;25.15;;;28.00;99.90;;;;;;5008130;28;20487;-63
2022/04/15 07:11:56;;;;;;;27.38;22.60;;;27.90;99.90;;;;;;5011749;28;20022;-63
2022/04/15 07:14:23;;;;;;;28.05;22.35;;;27.90;99.90;;;;;;5011518;28;20017;-63
2022/04/15 07:16:50;;;;;;;29.15;21.75;;;28.00;99.90;;;;;;5011691;28;20030;-63
2022/04/15 07:19:16;;;;;;;28.88;21.17;;;28.00;99.90;;;;;;5016558;28;20073;-63
2022/04/15 07:21:43;;;;;;;33.47;22.85;;;27.90;99.90;;;;;;5008580;28;20038;-63
2022/04/15 07:24:10;;;;;;;30.73;22.30;;;27.90;99.90;;;;;;5014854;28;20018;-64
2022/04/15 07:26:37;;;;;;;31.67;23.88;;;27.90;99.90;;;;;;5010663;28;20048;-66
2022/04/15 07:29:04;;;;;;;26.52;22.05;;;27.90;99.90;;;;;;5010396;28;20077;-65
2022/04/15 07:31:32;;;;;;;36.10;28.08;;;27.90;99.90;;;;;;5014578;28;20029;-63
2022/04/15 07:33:59;;;;;;;43.05;32.15;;;27.90;99.90;;;;;;5013344;28;20029;-64
2022/04/15 07:39:04;;;;;;;37.28;29.70;;;27.80;99.90;;;;;;5004346;28;20475;-63
2022/04/15 07:41:31;;;;;;;34.20;26.33;;;27.90;99.90;;;;;;5005116;28;20242;-64
2022/04/15 07:43:58;;;;;;;34.60;25.85;;;28.00;99.90;;;;;;5005074;28;20057;-64
2022/04/15 07:46:25;;;;;;;31.92;24.90;;;28.00;99.90;;;;;;5004004;28;20074;-63
2022/04/15 07:48:51;;;;;;;45.45;35.72;;;27.90;99.90;;;;;;5004099;28;20034;-65
2022/04/15 07:51:18;;;;;;;45.25;33.72;;;28.00;99.90;;;;;;5013010;28;20045;-63
2022/04/15 07:53:45;;;;;;;48.90;33.80;;;28.10;99.90;;;;;;5007403;28;20033;-63
2022/04/15 07:56:11;;;;;;;41.20;32.20;;;28.10;99.90;;;;;;5017311;28;20038;-62
2022/04/15 07:58:38;;;;;;;41.78;33.92;;;28.10;99.90;;;;;;5005963;28;20037;-62
2022/04/15 08:01:06;;;;;;;44.65;32.80;;;28.10;99.90;;;;;;5008630;28;20030;-66
2022/04/15 08:03:33;;;;;;;41.83;33.05;;;28.10;99.90;;;;;;5007984;28;20038;-63
2022/04/15 08:06:00;;;;;;;41.60;32.47;;;28.10;99.90;;;;;;5016101;28;20017;-62
2022/04/15 08:08:27;;;;;;;42.25;31.48;;;28.20;99.90;;;;;;5018829;28;20032;-62
2022/04/15 08:10:54;;;;;;;40.17;29.30;;;28.30;99.90;;;;;;5026588;28;20022;-64
2022/04/15 08:13:21;;;;;;;33.70;24.73;;;28.40;99.90;;;;;;5010522;28;20036;-63
2022/04/15 08:15:50;;;;;;;31.15;25.65;;;28.30;99.90;;;;;;5008610;28;20170;-64
2022/04/15 08:18:17;;;;;;;32.28;25.70;;;28.30;99.90;;;;;;5003756;28;20554;-64
2022/04/15 08:20:44;;;;;;;38.05;27.27;;;28.40;99.90;;;;;;5010308;28;20025;-63
2022/04/15 08:23:11;;;;;;;38.97;30.10;;;28.40;99.90;;;;;;5007396;28;20022;-63
2022/04/15 08:25:37;;;;;;;36.53;28.10;;;28.40;99.90;;;;;;5004806;28;20038;-62
2022/04/15 08:28:05;;;;;;;39.88;29.73;;;28.30;99.90;;;;;;5006947;28;20337;-63
2022/04/15 08:30:33;;;;;;;39.70;29.60;;;28.30;99.90;;;;;;5009550;28;20014;-62
2022/04/15 08:33:02;;;;;;;37.20;28.55;;;28.20;99.90;;;;;;5009966;28;20403;-63
2022/04/15 08:35:29;;;;;;;43.55;32.33;;;28.20;99.90;;;;;;5024394;28;20025;-62
2022/04/15 08:37:56;;;;;;;46.97;32.08;;;28.30;99.90;;;;;;5013645;28;20034;-62
2022/04/15 08:40:22;;;;;;;46.33;30.60;;;28.20;99.90;;;;;;5011688;28;20155;-62
2022/04/15 08:42:50;;;;;;;42.63;30.95;;;28.20;99.90;;;;;;4990562;28;20022;-62
2022/04/15 08:45:20;;;;;;;40.60;30.92;;;28.30;99.90;;;;;;5011745;28;20025;-64
2022/04/15 08:47:48;;;;;;;40.22;28.95;;;28.30;99.90;;;;;;5013092;28;20325;-62
2022/04/15 08:50:15;;;;;;;41.72;29.13;;;28.40;99.90;;;;;;5012622;28;20118;-63
2022/04/15 08:52:42;;;;;;;36.92;27.30;;;28.40;99.90;;;;;;5004693;28;20026;-62
2022/04/15 08:55:09;;;;;;;38.70;29.55;;;28.40;99.90;;;;;;5014339;28;20034;-64
2022/04/15 08:57:36;;;;;;;38.95;28.60;;;28.40;99.90;;;;;;4989767;28;20033;-63
2022/04/15 09:00:05;;;;;;;42.35;31.70;;;28.40;99.90;;;;;;5007499;28;20026;-62
2022/04/15 09:02:37;;;;;;;35.95;26.50;;;28.50;99.90;;;;;;5013300;28;20029;-62
2022/04/15 09:05:05;;;;;;;33.92;24.42;;;28.60;99.90;;;;;;5005220;28;20077;-64
2022/04/15 09:07:36;;;;;;;30.52;20.65;;;28.60;99.90;;;;;;5014193;28;20029;-63
2022/04/15 09:10:04;;;;;;;24.98;20.55;;;28.60;99.90;;;;;;5016554;28;20535;-65
2022/04/15 09:12:35;;;;;;;28.33;21.30;;;28.60;99.90;;;;;;5013797;28;20026;-64
2022/04/15 09:15:06;;;;;;;26.95;21.52;;;28.60;99.90;;;;;;5014025;28;20030;-64
2022/04/15 09:17:36;;;;;;;28.05;20.17;;;28.60;99.90;;;;;;5014165;28;20033;-64
2022/04/15 09:20:05;;;;;;;24.70;19.83;;;28.60;99.90;;;;;;5014135;28;20539;-64
2022/04/15 09:22:31;;;;;;;26.55;22.00;;;28.60;99.90;;;;;;5010248;28;20065;-65
2022/04/15 09:24:59;;;;;;;30.10;26.10;;;28.60;99.90;;;;;;5001172;28;20113;-62
2022/04/15 09:27:28;;;;;;;37.25;26.58;;;28.50;99.90;;;;;;5004680;28;20018;-63
2022/04/15 09:29:55;;;;;;;39.78;30.75;;;28.50;99.90;;;;;;5007198;28;20018;-64
2022/04/15 09:32:24;;;;;;;39.90;30.95;;;28.50;99.90;;;;;;5010392;28;20289;-64
2022/04/15 09:34:58;;;;;;;35.60;29.30;;;28.40;99.90;;;;;;5000376;28;20062;-66
2022/04/15 09:37:29;;;;;;;41.15;31.40;;;28.30;99.90;;;;;;5012831;28;20390;-63
2022/04/15 09:40:12;;;;;;;41.20;31.88;;;28.30;99.90;;;;;;5030008;23;20116;-63
2022/04/15 09:42:50;;;;;;;42.25;33.70;;;28.30;99.90;;;;;;5047416;28;20036;-64
2022/04/15 09:45:19;;;;;;;69.80;49.47;;;28.30;99.90;;;;;;5044764;28;20029;-64
2022/04/15 09:47:52;;;;;;;68.25;53.90;;;28.30;99.90;;;;;;5063262;28;20465;-70
2022/04/15 09:50:28;;;;;;;66.82;51.15;;;28.20;99.90;;;;;;5033214;28;20018;-64
2022/04/15 09:53:07;;;;;;;49.80;40.03;;;28.30;99.90;;;;;;5034261;28;20018;-62
2022/04/15 09:55:36;;;;;;;51.03;37.75;;;28.20;99.90;;;;;;5045768;28;20360;-63
2022/04/15 09:58:09;;;;;;;54.58;40.95;;;28.30;99.90;;;;;;5036201;28;20105;-65
2022/04/15 10:00:38;;;;;;;60.42;40.08;;;28.40;99.90;;;;;;5036942;28;20024;-66
2022/04/15 10:03:15;;;;;;;50.67;36.30;;;28.40;99.90;;;;;;5037430;28;20041;-67
2022/04/15 10:05:43;;;;;;;39.45;31.98;;;28.40;99.90;;;;;;5037453;28;20274;-64
2022/04/15 10:08:11;;;;;;;47.40;34.22;;;28.40;99.90;;;;;;5034633;28;20067;-63
2022/04/15 10:10:38;;;;;;;38.42;30.05;;;28.30;99.90;;;;;;5033095;28;20013;-64
2022/04/15 10:13:06;;;;;;;33.17;25.10;;;28.20;99.90;;;;;;5038208;28;20049;-62
2022/04/15 10:15:37;;;;;;;34.85;26.77;;;28.20;99.90;;;;;;5036203;28;20029;-64
2022/04/15 10:18:05;;;;;;;29.35;24.08;;;28.30;99.90;;;;;;5040530;28;20362;-61
2022/04/15 10:20:33;;;;;;;28.55;23.85;;;28.30;99.90;;;;;;5045780;28;20017;-62
2022/04/15 10:23:04;;;;;;;30.33;24.48;;;28.20;99.90;;;;;;5055561;28;20029;-63
2022/04/15 10:25:31;;;;;;;36.87;28.33;;;28.20;99.90;;;;;;5045915;28;20048;-64
2022/04/15 10:28:18;;;;;;;35.08;28.58;;;28.20;99.90;;;;;;5036604;28;20021;-63
2022/04/15 10:30:52;;;;;;;33.97;27.67;;;28.20;99.90;;;;;;5047272;28;20703;-68
2022/04/15 10:33:31;;;;;;;36.20;27.80;;;28.10;99.90;;;;;;5035675;28;20083;-63
2022/04/15 10:36:00;;;;;;;40.15;27.55;;;28.10;99.90;;;;;;5045508;28;20500;-66
2022/04/15 10:38:27;;;;;;;51.55;28.05;;;28.00;99.90;;;;;;5055721;28;20082;-66
2022/04/15 10:40:56;;;;;;;30.50;24.52;;;28.10;99.90;;;;;;5054869;28;20057;-62
2022/04/15 10:43:27;;;;;;;37.35;26.38;;;28.10;99.90;;;;;;5055205;28;20048;-67
2022/04/15 10:46:14;;;;;;;32.45;25.45;;;28.00;99.90;;;;;;5055448;28;20033;-62
2022/04/15 10:48:42;;;;;;;28.40;24.35;;;28.00;99.90;;;;;;5031837;28;20036;-66
2022/04/15 10:51:31;;;;;;;30.90;25.20;;;27.90;99.90;;;;;;5055141;28;20108;-66
2022/04/15 10:54:38;;;;;;;29.67;25.67;;;27.90;99.90;;;;;;5055202;28;20462;-61
2022/04/15 10:57:09;;;;;;;33.00;26.35;;;27.80;99.90;;;;;;5054917;28;20032;-62
2022/04/15 11:02:38;;;;;;;33.10;25.17;;;27.90;99.90;;;;;;5041894;28;20025;-64
2022/04/15 11:05:06;;;;;;;31.23;23.67;;;27.80;99.90;;;;;;5047312;28;20029;-64
2022/04/15 11:07:42;;;;;;;32.97;26.23;;;27.80;99.90;;;;;;5040459;28;20033;-63
2022/04/15 11:10:18;;;;;;;31.85;27.00;;;27.70;99.90;;;;;;5047292;28;20045;-64
2022/04/15 11:12:45;;;;;;;37.88;26.13;;;27.60;99.90;;;;;;5056350;28;20096;-63
2022/04/15 11:15:12;;;;;;;49.58;37.97;;;27.60;99.90;;;;;;5055813;28;20025;-63
2022/04/15 11:17:41;;;;;;;37.20;29.38;;;27.70;99.90;;;;;;5055793;28;20061;-62
2022/04/15 11:20:08;;;;;;;76.80;53.63;;;27.60;99.90;;;;;;5053684;28;20076;-64
2022/04/15 11:22:45;;;;;;;118.10;89.70;;;27.50;99.90;;;;;;5051424;28;20032;-65
2022/04/15 11:25:14;;;;;;;121.25;88.90;;;27.60;99.90;;;;;;5048578;28;20028;-61
2022/04/15 11:27:41;;;;;;;147.93;102.57;;;27.60;99.90;;;;;;5054331;28;20029;-63
2022/04/15 11:30:17;;;;;;;58.47;41.58;;;27.70;99.90;;;;;;5054222;28;20441;-62
2022/04/15 11:32:48;;;;;;;42.00;32.33;;;27.70;99.90;;;;;;5054509;28;20041;-64
2022/04/15 11:35:36;;;;;;;35.13;28.20;;;27.70;99.90;;;;;;5051602;28;20032;-65
2022/04/15 11:38:05;;;;;;;32.65;26.20;;;27.70;99.90;;;;;;5022530;28;20525;-62
2022/04/15 11:40:35;;;;;;;33.28;27.52;;;27.70;99.90;;;;;;5048480;28;20068;-63
2022/04/15 11:43:06;;;;;;;34.03;28.02;;;27.60;99.90;;;;;;5045681;28;20028;-62
2022/04/15 11:45:42;;;;;;;34.72;28.25;;;27.60;99.90;;;;;;5044255;28;20100;-63
2022/04/15 11:48:29;;;;;;;32.95;28.52;;;27.60;99.90;;;;;;5043925;28;20025;-63
2022/04/15 11:50:56;;;;;;;97.05;86.00;;;27.60;99.90;;;;;;5043934;28;20156;-63
2022/04/15 11:53:23;;;;;;;58.38;44.10;;;27.70;99.90;;;;;;5043354;28;20029;-64
2022/04/15 11:55:54;;;;;;;50.15;40.60;;;27.70;99.90;;;;;;5043690;28;20031;-63
2022/04/15 11:58:22;;;;;;;41.22;34.17;;;27.80;99.90;;;;;;5044997;28;20037;-63
2022/04/15 12:01:02;;;;;;;43.05;36.70;;;27.90;99.90;;;;;;5041434;28;20029;-64
2022/04/15 12:03:30;;;;;;;41.55;34.65;;;27.90;99.90;;;;;;5047278;28;20063;-63
2022/04/15 12:05:58;;;;;;;42.95;34.92;;;27.80;99.90;;;;;;5044700;28;20120;-63
2022/04/15 12:08:26;;;;;;;42.00;33.38;;;27.70;99.90;;;;;;5047675;28;20021;-63
2022/04/15 12:10:53;;;;;;;43.40;35.67;;;27.60;99.90;;;;;;5042651;28;20049;-63
2022/04/15 12:13:20;;;;;;;46.00;35.78;;;27.50;99.90;;;;;;5045000;28;20029;-63
2022/04/15 12:15:48;;;;;;;45.75;35.90;;;27.50;99.90;;;;;;5044902;28;20055;-63
2022/04/15 12:18:15;;;;;;;46.72;39.80;;;27.50;99.90;;;;;;5051923;28;20087;-63
2022/04/15 12:20:43;;;;;;;51.45;37.65;;;27.50;99.90;;;;;;5052123;28;20052;-64
2022/04/15 12:23:13;;;;;;;45.75;37.08;;;27.50;99.90;;;;;;5044040;28;20029;-64
2022/04/15 12:31:34;;;;;;;46.10;37.00;;;27.50;99.90;;;;;;5043661;28;20021;-63
2022/04/15 12:34:03;;;;;;;45.70;36.20;;;27.60;99.90;;;;;;5042003;28;20029;-64
2022/04/15 12:36:40;;;;;;;43.92;36.08;;;27.70;99.90;;;;;;5045661;28;20358;-64
2022/04/15 12:39:07;;;;;;;80.70;60.80;;;27.60;99.90;;;;;;5046184;28;20081;-64
2022/04/15 12:41:48;;;;;;;56.92;42.53;;;27.70;99.90;;;;;;5042195;28;20294;-63
2022/04/15 12:44:17;;;;;;;44.22;36.17;;;27.80;99.90;;;;;;5040508;28;20059;-62
2022/04/15 12:46:46;;;;;;;39.33;33.88;;;27.70;99.90;;;;;;5039686;28;20489;-63
2022/04/15 12:49:28;;;;;;;46.33;34.70;;;27.80;99.90;;;;;;5048442;28;20029;-63
2022/04/15 12:52:06;;;;;;;;;;;27.80;99.90;;;;;;5048530;28;20029;-64